Time;durP1;ratioP1;P1;durP2;ratioP2;P2;SDS_P1;SDS_P2;PMS_P1;PMS_P2;Temp;Humidity;BMP_temperature;BMP_pressure;BME280_temperature;BME280_humidity;BME280_pressure;Samples;Min_cycle;Max_cycle;Signal;HPM_P1;HPM_P2
2023/03/18 00:01:03;;;;;;;3.35;1.48;;;14.70;17.30;;;;;;5034186;28;20413;-93
2023/03/18 00:03:31;;;;;;;3.30;1.30;;;13.50;15.40;;;;;;5029562;28;20383;-91
2023/03/18 00:06:26;;;;;;;2.13;1.53;;;13.40;16.20;;;;;;5020736;28;20383;-92
2023/03/18 00:08:52;;;;;;;1.52;1.25;;;13.10;24.00;;;;;;4998433;28;20387;-92
2023/03/18 00:11:20;;;;;;;6.43;1.47;;;13.10;22.70;;;;;;5021005;28;20880;-91
2023/03/18 00:13:47;;;;;;;2.80;1.40;;;14.10;25.00;;;;;;5011913;28;20417;-92
2023/03/18 00:16:14;;;;;;;3.60;1.30;;;13.00;29.20;;;;;;5001345;28;20976;-92
2023/03/18 00:18:40;;;;;;;2.60;1.30;;;14.30;30.00;;;;;;5001179;28;20397;-91
2023/03/18 00:21:07;;;;;;;1.83;1.50;;;13.40;46.50;;;;;;5000671;28;20399;-91
2023/03/18 00:23:33;;;;;;;2.00;1.40;;;12.70;98.20;;;;;;4999594;28;20392;-91
2023/03/18 00:26:01;;;;;;;2.80;1.10;;;12.60;86.90;;;;;;5001452;28;20530;-93
2023/03/18 00:28:27;;;;;;;1.35;1.20;;;12.60;99.90;;;;;;5003157;28;20400;-92
2023/03/18 00:30:54;;;;;;;3.10;1.60;;;12.30;91.00;;;;;;5002303;28;20413;-92
2023/03/18 00:33:20;;;;;;;3.30;1.50;;;14.20;99.90;;;;;;5004043;28;20447;-92
2023/03/18 00:35:46;;;;;;;1.90;1.20;;;13.40;99.90;;;;;;5003019;28;20389;-92
2023/03/18 00:38:23;;;;;;;2.97;1.30;;;13.90;99.90;;;;;;5005153;28;20385;-92
2023/03/18 00:41:00;;;;;;;1.83;1.50;;;15.00;99.90;;;;;;5007713;28;21206;-91
2023/03/18 00:43:28;;;;;;;3.13;1.50;;;13.20;99.90;;;;;;5004682;28;20902;-91
2023/03/18 00:45:55;;;;;;;2.30;1.50;;;14.30;99.90;;;;;;5002830;28;20535;-92
2023/03/18 00:48:22;;;;;;;2.90;1.40;;;13.00;99.90;;;;;;5001913;28;20381;-92
2023/03/18 00:50:48;;;;;;;1.93;1.43;;;12.20;99.90;;;;;;5009273;28;20432;-92
2023/03/18 00:53:15;;;;;;;2.30;1.52;;;11.90;99.90;;;;;;5021857;28;20393;-94
2023/03/18 00:55:41;;;;;;;1.90;1.25;;;14.10;99.90;;;;;;5021204;28;20408;-94
2023/03/18 00:58:09;;;;;;;2.30;1.40;;;14.30;99.90;;;;;;5026706;28;20413;-93
2023/03/18 01:00:36;;;;;;;2.60;1.60;;;13.30;99.90;;;;;;5021701;28;20391;-93
2023/03/18 01:03:03;;;;;;;3.37;1.60;;;12.50;99.90;;;;;;5021116;28;20993;-92
2023/03/18 01:05:30;;;;;;;2.72;1.60;;;12.40;99.90;;;;;;5018580;28;20383;-92
2023/03/18 01:07:56;;;;;;;2.42;1.52;;;14.80;99.90;;;;;;5019728;28;20478;-92
2023/03/18 01:10:23;;;;;;;2.50;1.75;;;11.50;99.90;;;;;;5021246;28;20456;-91
2023/03/18 01:12:49;;;;;;;1.60;1.35;;;12.30;99.90;;;;;;5023595;28;20398;-92
2023/03/18 01:15:18;;;;;;;2.38;1.40;;;13.40;99.90;;;;;;5022600;28;20861;-92
2023/03/18 01:17:45;;;;;;;2.50;1.50;;;13.70;99.90;;;;;;5020030;28;20812;-91
2023/03/18 01:20:12;;;;;;;1.48;1.15;;;12.50;99.90;;;;;;5020238;28;20433;-91
2023/03/18 01:22:40;;;;;;;2.83;1.60;;;12.50;99.90;;;;;;5019991;28;20387;-92
2023/03/18 01:25:07;;;;;;;4.30;1.48;;;12.30;99.90;;;;;;5018566;28;20425;-91
2023/03/18 01:27:33;;;;;;;2.60;1.42;;;12.30;99.90;;;;;;5020552;28;20382;-92
2023/03/18 01:29:59;;;;;;;3.50;1.50;;;12.20;99.90;;;;;;5019232;28;20474;-91
2023/03/18 01:32:25;;;;;;;1.80;1.40;;;14.20;99.90;;;;;;5017896;28;20399;-92
2023/03/18 01:34:51;;;;;;;3.10;1.70;;;12.10;99.90;;;;;;5020019;28;20395;-92
2023/03/18 01:37:18;;;;;;;1.30;1.20;;;11.80;99.90;;;;;;5019493;28;20418;-92
2023/03/18 01:39:45;;;;;;;3.72;1.50;;;11.60;99.90;;;;;;5019077;28;20399;-92
2023/03/18 01:42:11;;;;;;;2.70;1.45;;;12.00;99.90;;;;;;5020159;28;20391;-92
2023/03/18 01:44:37;;;;;;;4.00;1.50;;;13.60;99.90;;;;;;5020410;28;20444;-92
2023/03/18 01:47:02;;;;;;;2.10;1.67;;;11.80;99.90;;;;;;5019976;28;20407;-92
2023/03/18 01:49:35;;;;;;;2.20;1.10;;;13.00;99.90;;;;;;5018851;28;20762;-92
2023/03/18 01:52:04;;;;;;;1.83;1.60;;;14.20;99.90;;;;;;5018332;28;20405;-92
2023/03/18 01:55:04;;;;;;;3.03;1.48;;;13.70;99.90;;;;;;5020569;28;20984;-92
2023/03/18 01:57:34;;;;;;;3.17;1.60;;;11.80;99.90;;;;;;5018586;28;20399;-92
2023/03/18 02:00:15;;;;;;;2.00;1.55;;;11.60;99.90;;;;;;5020496;28;20372;-92
2023/03/18 02:02:43;;;;;;;3.55;1.60;;;12.20;99.90;;;;;;5021223;28;20400;-92
2023/03/18 02:05:18;;;;;;;2.35;1.30;;;14.70;99.90;;;;;;5018776;28;20387;-91
2023/03/18 02:07:52;;;;;;;2.33;1.42;;;12.00;99.90;;;;;;5015906;28;20398;-92
2023/03/18 02:10:25;;;;;;;1.80;1.20;;;11.70;99.90;;;;;;5020438;28;20460;-92
2023/03/18 02:13:30;;;;;;;2.60;1.50;;;13.00;99.90;;;;;;5017450;28;20384;-92
2023/03/18 02:16:19;;;;;;;4.30;1.60;;;11.40;99.90;;;;;;5004632;28;20469;-92
2023/03/18 02:18:58;;;;;;;1.85;1.25;;;11.50;1.00;;;;;;5019048;28;20395;-92
2023/03/18 02:22:07;;;;;;;1.85;1.20;;;11.10;1.00;;;;;;5019921;28;20459;-92
2023/03/18 02:24:51;;;;;;;2.10;1.73;;;11.20;1.00;;;;;;4990530;28;20407;-92
2023/03/18 02:27:37;;;;;;;2.20;1.50;;;10.80;93.60;;;;;;5019957;28;20395;-92
2023/03/18 02:30:11;;;;;;;2.58;1.60;;;11.90;99.90;;;;;;5020082;28;20414;-92
2023/03/18 02:32:44;;;;;;;1.77;1.50;;;11.00;1.00;;;;;;5024827;28;20468;-92
2023/03/18 02:35:11;;;;;;;2.78;1.50;;;11.30;99.90;;;;;;5034411;28;20438;-91
2023/03/18 02:37:39;;;;;;;2.38;1.30;;;11.90;99.90;;;;;;5038537;28;20397;-94
2023/03/18 02:40:27;;;;;;;2.38;1.30;;;11.40;1.00;;;;;;5016002;28;20401;-92
2023/03/18 02:42:57;;;;;;;3.80;1.30;;;14.10;1.00;;;;;;5014166;28;20385;-92
2023/03/18 02:45:47;;;;;;;2.73;1.30;;;11.00;1.00;;;;;;5002433;28;20389;-91
2023/03/18 02:48:17;;;;;;;2.47;1.25;;;10.70;1.00;;;;;;4999786;28;20393;-91
2023/03/18 02:50:44;;;;;;;2.80;1.40;;;13.80;99.90;;;;;;5001620;28;20681;-91
2023/03/18 02:53:14;;;;;;;2.45;1.55;;;14.10;99.90;;;;;;5010312;28;20453;-92
2023/03/18 02:55:43;;;;;;;1.65;1.30;;;11.90;99.90;;;;;;5023046;28;20488;-94
2023/03/18 02:58:11;;;;;;;2.50;1.30;;;12.30;99.90;;;;;;5020755;28;20434;-92
2023/03/18 03:00:39;;;;;;;3.00;1.40;;;12.20;99.90;;;;;;5003577;28;20488;-92
2023/03/18 03:03:13;;;;;;;2.33;1.30;;;12.30;99.90;;;;;;5004331;28;20894;-92
2023/03/18 03:05:39;;;;;;;1.25;1.00;;;12.20;99.90;;;;;;5024253;28;20391;-92
2023/03/18 03:08:08;;;;;;;2.30;1.20;;;12.20;99.90;;;;;;5023294;28;20471;-91
2023/03/18 03:10:35;;;;;;;1.90;1.20;;;12.00;99.90;;;;;;5024230;28;20460;-91
2023/03/18 03:13:01;;;;;;;1.40;1.30;;;13.70;99.90;;;;;;5021299;28;20466;-92
2023/03/18 03:15:27;;;;;;;2.67;1.30;;;12.50;99.90;;;;;;5021197;28;20474;-92
2023/03/18 03:17:53;;;;;;;1.40;1.20;;;11.40;99.90;;;;;;5021331;28;20427;-91
2023/03/18 03:20:20;;;;;;;2.80;1.40;;;13.30;99.90;;;;;;5021343;28;20406;-92
2023/03/18 03:22:46;;;;;;;2.10;1.23;;;11.40;99.90;;;;;;5020089;28;20409;-92
2023/03/18 03:25:12;;;;;;;3.80;1.42;;;11.60;99.90;;;;;;5019832;28;20391;-91
2023/03/18 03:27:37;;;;;;;2.28;1.33;;;11.00;1.00;;;;;;5021258;28;20394;-91
2023/03/18 03:30:09;;;;;;;2.00;1.20;;;10.40;1.00;;;;;;5022078;28;20429;-91
2023/03/18 03:32:35;;;;;;;2.47;1.30;;;10.30;99.90;;;;;;5019664;28;20572;-92
2023/03/18 03:35:00;;;;;;;3.47;1.50;;;10.70;99.90;;;;;;5012689;28;20830;-92
2023/03/18 03:37:26;;;;;;;3.97;1.70;;;11.80;1.00;;;;;;5004776;28;20385;-92
2023/03/18 03:39:52;;;;;;;3.13;1.60;;;10.00;1.00;;;;;;5004001;28;20403;-93
2023/03/18 03:42:17;;;;;;;1.98;1.30;;;10.00;1.00;;;;;;5016756;28;20395;-92
2023/03/18 03:44:46;;;;;;;1.33;1.23;;;9.60;1.00;;;;;;5029920;28;20395;-92
2023/03/18 03:47:14;;;;;;;2.55;1.38;;;10.70;1.00;;;;;;5034268;28;20515;-93
2023/03/18 03:49:51;;;;;;;2.05;1.50;;;11.20;31.00;;;;;;5037772;28;20399;-91
2023/03/18 03:52:19;;;;;;;3.80;1.50;;;10.00;1.00;;;;;;5020323;28;20395;-92
2023/03/18 03:54:50;;;;;;;2.57;1.43;;;9.60;99.90;;;;;;5009405;28;20393;-92
2023/03/18 03:57:18;;;;;;;3.80;1.50;;;9.70;1.00;;;;;;5002108;28;20381;-91
2023/03/18 03:59:44;;;;;;;2.70;1.65;;;11.50;99.90;;;;;;5000944;28;20891;-91
2023/03/18 04:02:10;;;;;;;1.50;1.30;;;10.60;1.00;;;;;;5000443;28;20779;-91
2023/03/18 04:04:36;;;;;;;3.30;1.60;;;9.50;1.00;;;;;;4999947;28;20396;-91
2023/03/18 04:07:02;;;;;;;1.90;1.50;;;10.00;1.00;;;;;;5000213;28;20409;-91
2023/03/18 04:09:28;;;;;;;2.25;1.40;;;9.30;14.90;;;;;;5001430;28;20405;-91
2023/03/18 04:11:53;;;;;;;4.47;1.98;;;8.90;1.00;;;;;;5002065;28;20393;-92
2023/03/18 04:14:19;;;;;;;2.30;2.00;;;8.60;1.00;;;;;;5007206;28;20388;-93
2023/03/18 04:16:45;;;;;;;2.30;1.60;;;8.90;14.20;;;;;;5020062;28;20960;-91
2023/03/18 04:19:22;;;;;;;3.20;2.00;;;9.30;99.90;;;;;;5003157;28;20416;-92
2023/03/18 04:21:48;;;;;;;2.15;1.52;;;11.50;23.20;;;;;;5002338;28;20393;-92
2023/03/18 04:24:17;;;;;;;2.60;1.60;;;10.10;2.60;;;;;;5000605;28;20400;-92
2023/03/18 04:26:47;;;;;;;1.50;1.40;;;10.80;1.00;;;;;;5001989;28;20413;-91
2023/03/18 04:29:12;;;;;;;2.30;1.50;;;8.60;1.00;;;;;;5002247;28;20397;-91
2023/03/18 04:31:38;;;;;;;2.20;1.77;;;8.40;1.00;;;;;;5002858;28;20408;-92
2023/03/18 04:34:03;;;;;;;2.20;1.77;;;10.30;99.90;;;;;;5015135;28;20387;-92
2023/03/18 04:36:29;;;;;;;1.77;1.40;;;8.70;99.90;;;;;;5019904;28;20391;-91
2023/03/18 04:38:55;;;;;;;1.77;1.40;;;8.40;1.00;;;;;;5019248;28;20390;-92
2023/03/18 04:41:22;;;;;;;2.50;1.50;;;10.10;75.50;;;;;;5019018;28;20387;-91
2023/03/18 04:43:48;;;;;;;2.55;2.15;;;8.50;1.00;;;;;;5020281;28;20399;-91
2023/03/18 04:46:14;;;;;;;1.70;1.50;;;8.40;18.10;;;;;;5021239;28;20402;-91
2023/03/18 04:48:40;;;;;;;3.60;1.50;;;8.40;99.90;;;;;;5033984;28;20407;-92
2023/03/18 04:51:08;;;;;;;2.75;1.50;;;7.80;99.90;;;;;;5041493;28;20431;-92
2023/03/18 04:53:37;;;;;;;3.70;1.70;;;8.20;1.00;;;;;;5040913;28;20403;-91
2023/03/18 04:56:03;;;;;;;3.55;1.60;;;8.10;99.90;;;;;;5020404;28;20781;-92
2023/03/18 04:58:28;;;;;;;2.42;1.63;;;8.20;99.90;;;;;;5019893;28;20383;-91
2023/03/18 05:00:54;;;;;;;2.83;1.80;;;8.00;99.90;;;;;;5019098;28;20478;-91
2023/03/18 05:03:20;;;;;;;2.50;1.60;;;8.10;1.00;;;;;;5024793;28;20438;-91
2023/03/18 05:06:02;;;;;;;2.40;1.48;;;7.50;1.00;;;;;;5020593;28;20471;-91
2023/03/18 05:08:28;;;;;;;3.30;1.50;;;8.50;99.90;;;;;;5024706;28;20462;-91
2023/03/18 05:10:57;;;;;;;2.80;1.50;;;8.10;99.90;;;;;;5019681;28;20432;-91
2023/03/18 05:13:25;;;;;;;4.68;2.00;;;8.90;99.90;;;;;;5019673;28;20383;-92
2023/03/18 05:15:52;;;;;;;1.70;1.60;;;9.90;99.90;;;;;;5018384;28;20395;-92
2023/03/18 05:18:18;;;;;;;1.60;1.40;;;10.60;1.00;;;;;;5018438;28;20402;-92
2023/03/18 05:20:44;;;;;;;2.45;1.55;;;7.60;99.90;;;;;;5020419;28;20774;-92
2023/03/18 05:23:10;;;;;;;1.60;1.45;;;9.20;1.00;;;;;;5018212;28;20398;-91
2023/03/18 05:25:39;;;;;;;4.03;1.77;;;7.50;99.90;;;;;;5020545;28;20391;-93
2023/03/18 05:28:07;;;;;;;2.03;1.55;;;8.40;99.90;;;;;;5015088;28;20425;-93
2023/03/18 05:30:38;;;;;;;2.92;1.80;;;7.70;1.00;;;;;;5007611;28;20420;-92
2023/03/18 05:33:17;;;;;;;4.70;1.80;;;7.80;1.00;;;;;;4998961;28;20408;-92
2023/03/18 05:35:50;;;;;;;2.08;1.80;;;7.70;1.00;;;;;;5016692;28;20911;-92
2023/03/18 05:38:33;;;;;;;2.28;1.80;;;8.50;1.00;;;;;;5000508;28;20396;-93
2023/03/18 05:41:02;;;;;;;1.73;1.63;;;9.00;1.00;;;;;;5018447;28;20880;-93
2023/03/18 05:43:28;;;;;;;2.10;1.20;;;7.70;1.00;;;;;;5017466;28;20388;-92
2023/03/18 05:45:59;;;;;;;2.60;1.80;;;7.40;1.00;;;;;;5016448;28;20387;-92
2023/03/18 05:48:28;;;;;;;2.97;2.00;;;7.70;99.90;;;;;;5018160;28;20388;-93
2023/03/18 05:50:58;;;;;;;2.60;1.80;;;7.70;99.90;;;;;;5020605;28;20415;-93
2023/03/18 05:53:24;;;;;;;2.75;1.70;;;9.50;99.90;;;;;;5019553;28;20406;-92
2023/03/18 05:55:56;;;;;;;2.88;1.75;;;7.50;99.90;;;;;;5019838;28;20398;-92
2023/03/18 05:58:29;;;;;;;3.07;2.00;;;9.30;1.00;;;;;;5017111;28;20441;-92
2023/03/18 06:00:56;;;;;;;3.60;2.00;;;7.20;1.00;;;;;;5017597;28;20406;-92
2023/03/18 06:03:33;;;;;;;2.53;2.08;;;9.20;1.00;;;;;;5018779;28;20402;-92
2023/03/18 06:06:05;;;;;;;3.90;2.58;;;9.20;1.00;;;;;;5018203;28;20387;-92
2023/03/18 06:08:33;;;;;;;5.53;2.60;;;8.70;1.00;;;;;;5018683;28;20485;-92
2023/03/18 06:11:00;;;;;;;2.70;2.30;;;7.40;1.00;;;;;;5000134;28;20479;-91
2023/03/18 06:13:26;;;;;;;3.35;2.00;;;7.60;1.00;;;;;;4996761;28;20953;-91
2023/03/18 06:16:02;;;;;;;3.90;2.10;;;7.50;99.90;;;;;;4999314;28;20500;-91
2023/03/18 06:21:12;;;;;;;2.92;1.80;;;7.60;99.90;;;;;;4995068;23;20499;-89
2023/03/18 06:23:40;;;;;;;2.72;1.80;;;7.60;99.90;;;;;;4973562;28;20415;-90
2023/03/18 06:26:09;;;;;;;2.90;1.80;;;7.80;99.90;;;;;;4980017;28;20439;-88
2023/03/18 06:28:38;;;;;;;3.55;2.20;;;7.60;99.90;;;;;;4992270;28;20412;-88
2023/03/18 06:31:03;;;;;;;2.70;1.77;;;9.20;24.30;;;;;;4979015;28;20759;-87
2023/03/18 06:33:32;;;;;;;3.10;1.93;;;7.90;1.00;;;;;;4991414;28;20422;-89
2023/03/18 06:35:59;;;;;;;3.28;1.67;;;6.80;99.90;;;;;;4989910;28;20767;-87
2023/03/18 06:38:26;;;;;;;2.60;1.80;;;9.80;99.90;;;;;;4978454;28;20385;-87
2023/03/18 06:40:55;;;;;;;3.50;1.75;;;8.10;99.90;;;;;;4986720;28;20396;-87
2023/03/18 06:43:21;;;;;;;2.10;1.80;;;8.20;99.90;;;;;;4995946;28;20516;-87
2023/03/18 06:45:47;;;;;;;3.10;1.50;;;8.50;1.00;;;;;;4997201;28;20400;-89
2023/03/18 06:48:13;;;;;;;1.80;1.50;;;10.00;99.90;;;;;;4987610;28;20392;-88
2023/03/18 06:50:42;;;;;;;2.42;1.73;;;10.10;99.90;;;;;;4979819;28;20439;-88
2023/03/18 06:53:09;;;;;;;2.60;1.60;;;8.20;1.00;;;;;;4978797;28;20463;-88
2023/03/18 06:55:38;;;;;;;1.98;1.60;;;8.40;99.90;;;;;;4977867;28;20396;-89
2023/03/18 06:58:07;;;;;;;3.07;1.90;;;9.40;99.90;;;;;;4978732;28;20427;-88
2023/03/18 07:00:34;;;;;;;2.20;1.40;;;8.70;1.00;;;;;;4978491;28;20424;-89
2023/03/18 07:03:00;;;;;;;4.40;1.70;;;8.10;1.00;;;;;;4977433;28;20396;-89
2023/03/18 07:05:26;;;;;;;2.53;1.50;;;10.30;99.90;;;;;;4976544;28;20395;-89
2023/03/18 07:07:53;;;;;;;2.80;1.45;;;8.80;99.90;;;;;;4978715;28;20385;-89
2023/03/18 07:10:28;;;;;;;2.50;1.70;;;7.90;1.00;;;;;;4981207;28;20411;-90
2023/03/18 07:12:54;;;;;;;4.28;1.67;;;8.90;41.50;;;;;;4977261;28;20396;-90
2023/03/18 07:15:32;;;;;;;2.55;1.60;;;10.10;99.90;;;;;;4978957;28;20895;-90
2023/03/18 07:17:59;;;;;;;1.77;1.60;;;9.00;1.00;;;;;;4983965;28;20500;-89
2023/03/18 07:20:26;;;;;;;4.10;1.92;;;10.90;1.00;;;;;;4979721;28;20420;-89
2023/03/18 07:22:52;;;;;;;2.80;1.75;;;10.20;99.90;;;;;;4977741;28;20463;-90
2023/03/18 07:25:17;;;;;;;2.15;1.60;;;10.40;1.00;;;;;;4979958;28;20396;-89
2023/03/18 07:27:44;;;;;;;2.65;1.65;;;9.30;1.00;;;;;;4984501;28;20428;-89
2023/03/18 07:30:10;;;;;;;4.68;1.98;;;9.30;1.00;;;;;;4977458;28;20429;-87
2023/03/18 07:32:37;;;;;;;3.08;2.10;;;9.30;40.00;;;;;;4976800;28;20405;-89
2023/03/18 07:35:04;;;;;;;1.90;1.60;;;9.40;1.00;;;;;;4993785;28;20425;-89
2023/03/18 07:37:34;;;;;;;2.58;1.58;;;9.40;1.00;;;;;;4975835;28;20397;-89
2023/03/18 07:40:00;;;;;;;3.13;2.10;;;9.50;99.90;;;;;;4981317;28;20509;-89
2023/03/18 07:42:25;;;;;;;3.20;1.50;;;9.60;99.90;;;;;;4989930;28;20389;-89
2023/03/18 07:44:51;;;;;;;4.15;2.08;;;9.60;26.00;;;;;;4976628;28;20420;-89
2023/03/18 07:47:17;;;;;;;1.95;1.70;;;10.30;99.90;;;;;;4978356;28;20404;-88
2023/03/18 07:49:43;;;;;;;2.13;1.70;;;9.90;80.20;;;;;;4981361;28;20493;-88
2023/03/18 07:52:09;;;;;;;2.50;1.50;;;10.00;1.00;;;;;;4978560;28;20396;-88
2023/03/18 07:54:35;;;;;;;2.20;1.40;;;10.10;99.90;;;;;;4978452;28;20910;-88
2023/03/18 07:57:02;;;;;;;2.83;1.60;;;10.20;1.00;;;;;;4981780;28;20388;-89
2023/03/18 07:59:28;;;;;;;3.55;2.10;;;10.70;99.90;;;;;;4983568;28;20384;-88
2023/03/18 08:01:56;;;;;;;2.30;1.60;;;12.00;99.90;;;;;;4970938;28;20408;-88
2023/03/18 08:04:22;;;;;;;3.53;1.80;;;10.50;99.90;;;;;;4978672;28;20392;-88
2023/03/18 08:06:48;;;;;;;2.10;1.50;;;12.40;61.80;;;;;;4984584;28;20532;-89
2023/03/18 08:09:14;;;;;;;2.80;1.50;;;11.20;46.10;;;;;;4993452;28;20453;-88
2023/03/18 08:11:40;;;;;;;2.05;1.45;;;12.00;1.00;;;;;;4975046;28;20414;-89
2023/03/18 08:14:06;;;;;;;1.83;1.40;;;11.00;1.00;;;;;;4991615;28;20564;-88
2023/03/18 08:16:32;;;;;;;3.50;1.80;;;13.20;1.00;;;;;;4975029;28;20898;-88
2023/03/18 08:19:00;;;;;;;3.78;1.20;;;11.50;1.00;;;;;;4971771;28;20434;-87
2023/03/18 08:21:26;;;;;;;1.95;1.35;;;11.90;1.00;;;;;;4980138;28;20416;-87
2023/03/18 08:23:58;;;;;;;3.60;1.20;;;14.80;99.90;;;;;;4966152;28;20402;-89
2023/03/18 08:26:26;;;;;;;4.35;1.15;;;12.60;99.90;;;;;;4973333;28;20396;-87
2023/03/18 08:28:52;;;;;;;1.27;0.90;;;12.90;99.90;;;;;;4977016;28;20400;-89
2023/03/18 08:31:18;;;;;;;2.47;1.02;;;13.50;99.90;;;;;;4995160;28;20408;-89
2023/03/18 08:33:48;;;;;;;2.20;1.02;;;14.10;99.90;;;;;;5010527;28;20410;-89
2023/03/18 08:36:17;;;;;;;1.85;1.00;;;13.70;99.90;;;;;;5000048;28;20416;-89
2023/03/18 08:38:43;;;;;;;1.40;1.08;;;13.80;95.90;;;;;;4990395;28;20434;-90
2023/03/18 08:41:17;;;;;;;1.57;0.90;;;15.20;41.60;;;;;;4996308;28;20571;-89
2023/03/18 08:43:51;;;;;;;1.98;1.23;;;14.00;96.90;;;;;;5008842;28;20370;-89
2023/03/18 08:46:19;;;;;;;2.40;1.30;;;14.70;57.30;;;;;;5017468;28;20394;-89
2023/03/18 08:48:54;;;;;;;2.67;1.40;;;14.20;21.00;;;;;;5016559;28;20433;-90
2023/03/18 08:51:41;;;;;;;5.95;1.80;;;14.20;17.40;;;;;;4994461;28;20413;-88
2023/03/18 08:54:20;;;;;;;;;;;;;;;;;;;;;
2023/03/18 08:59:45;;;;;;;2.00;1.27;;;14.50;26.30;;;;;;4998256;28;20407;-88
2023/03/18 09:02:15;;;;;;;2.60;1.30;;;15.90;15.50;;;;;;4980989;28;20501;-89
2023/03/18 09:04:46;;;;;;;3.10;1.20;;;14.60;9.90;;;;;;4978323;28;20388;-86
2023/03/18 09:07:14;;;;;;;3.00;1.00;;;15.00;16.30;;;;;;4980439;28;20391;-88
2023/03/18 09:09:42;;;;;;;1.80;1.17;;;14.60;31.20;;;;;;4976430;28;20767;-90
2023/03/18 09:12:08;;;;;;;2.47;1.00;;;14.70;15.90;;;;;;4979822;28;20414;-88
2023/03/18 09:14:33;;;;;;;3.83;1.20;;;14.80;19.60;;;;;;4978438;28;20384;-89
2023/03/18 09:16:59;;;;;;;1.70;1.20;;;14.90;5.40;;;;;;4975742;28;20400;-89
2023/03/18 09:19:26;;;;;;;2.43;1.13;;;14.90;1.00;;;;;;4974252;28;20392;-89
2023/03/18 09:28:58;;;;;;;1.50;1.20;;;14.80;1.00;;;;;;4914142;29;20461;-87
2023/03/18 09:31:24;;;;;;;1.40;0.90;;;15.10;1.00;;;;;;4914554;29;20409;-88
2023/03/18 09:34:36;;;;;;;2.20;1.10;;;14.30;33.80;;;;;;4936554;29;20417;-88
2023/03/18 09:37:36;;;;;;;;;;;;;;;;;;;;;
2023/03/18 09:40:07;;;;;;;3.40;1.60;;;16.70;56.80;;;;;;4969086;28;20408;-87
2023/03/18 09:43:02;;;;;;;4.28;1.80;;;15.00;1.00;;;;;;4975215;28;20482;-88
2023/03/18 09:49:39;;;;;;;2.13;0.90;;;15.30;1.00;;;;;;4994501;28;20404;-88
2023/03/18 09:52:22;;;;;;;1.90;1.20;;;15.70;1.00;;;;;;4959578;28;20411;-88
2023/03/18 09:55:15;;;;;;;1.30;0.80;;;15.40;1.00;;;;;;4969418;28;20383;-89
2023/03/18 09:57:50;;;;;;;1.92;1.00;;;15.50;1.00;;;;;;4970522;28;20395;-88
2023/03/18 10:00:26;;;;;;;0.77;0.73;;;15.20;1.00;;;;;;4972253;28;20391;-88
2023/03/18 10:03:41;;;;;;;1.40;0.90;;;15.50;1.00;;;;;;4988675;28;20396;-88
2023/03/18 10:06:25;;;;;;;1.50;1.40;;;15.60;1.00;;;;;;4997126;28;20461;-89
2023/03/18 10:08:57;;;;;;;1.30;0.80;;;15.40;1.00;;;;;;4997832;28;20396;-88
2023/03/18 10:11:44;;;;;;;2.42;1.45;;;15.40;1.00;;;;;;4997855;28;20407;-88
2023/03/18 10:15:01;;;;;;;2.97;1.10;;;15.40;1.00;;;;;;4982752;28;20479;-88
2023/03/18 10:17:41;;;;;;;2.35;1.05;;;15.40;1.00;;;;;;4974854;28;20400;-88
2023/03/18 10:20:38;;;;;;;2.37;0.80;;;14.90;3.50;;;;;;4974019;28;20400;-88
2023/03/18 10:23:43;;;;;;;2.13;0.90;;;15.50;1.00;;;;;;4974301;28;20427;-88
2023/03/18 10:26:31;;;;;;;2.65;1.00;;;14.40;1.00;;;;;;4973169;28;20898;-87
2023/03/18 10:29:35;;;;;;;2.03;1.00;;;15.70;1.00;;;;;;4974291;28;20408;-88
2023/03/18 10:32:28;;;;;;;1.95;1.10;;;15.10;1.00;;;;;;4980649;28;20404;-89
2023/03/18 10:35:07;;;;;;;2.30;1.20;;;15.80;1.00;;;;;;4975396;28;20970;-88
2023/03/18 10:38:23;;;;;;;2.17;1.23;;;15.80;1.00;;;;;;4988337;28;20782;-88
2023/03/18 10:40:55;;;;;;;2.78;1.27;;;15.80;1.00;;;;;;4953779;28;20915;-88
2023/03/18 10:43:27;;;;;;;6.55;1.35;;;16.10;1.00;;;;;;4971051;28;20432;-88
2023/03/18 10:46:30;;;;;;;2.40;1.20;;;15.80;1.00;;;;;;4971599;28;20491;-88
2023/03/18 10:49:33;;;;;;;2.35;1.33;;;16.20;1.00;;;;;;4968834;28;20403;-88
2023/03/18 10:52:08;;;;;;;1.83;1.00;;;16.60;1.00;;;;;;4976163;28;20883;-89
2023/03/18 10:54:37;;;;;;;2.05;1.10;;;16.10;1.00;;;;;;4976592;28;20403;-88
2023/03/18 10:57:03;;;;;;;3.00;1.30;;;16.50;1.00;;;;;;4981319;28;20396;-89
2023/03/18 10:59:46;;;;;;;1.95;1.00;;;15.80;1.00;;;;;;4977755;28;20454;-89
2023/03/18 11:06:19;;;;;;;2.67;1.10;;;15.70;1.00;;;;;;4973876;28;20389;-88
2023/03/18 11:09:09;;;;;;;1.50;1.20;;;18.40;1.00;;;;;;4972153;28;20438;-89
2023/03/18 11:11:49;;;;;;;2.38;1.20;;;16.10;1.00;;;;;;4953175;28;20420;-88
2023/03/18 11:14:45;;;;;;;3.50;1.50;;;17.20;1.00;;;;;;4975229;28;20415;-89
2023/03/18 11:17:24;;;;;;;2.40;1.30;;;15.90;1.00;;;;;;4975421;28;20400;-89
2023/03/18 11:26:49;;;;;;;1.70;1.40;;;17.50;1.00;;;;;;4973858;28;20411;-88
2023/03/18 11:29:32;;;;;;;2.67;1.55;;;18.50;1.00;;;;;;4998571;28;20384;-88
2023/03/18 11:32:04;;;;;;;2.40;1.50;;;17.60;1.00;;;;;;4978122;28;20965;-86
2023/03/18 11:34:43;;;;;;;2.92;1.52;;;17.30;1.00;;;;;;4976636;28;20408;-88
2023/03/18 11:37:22;;;;;;;2.25;1.20;;;18.70;1.00;;;;;;4983396;28;20387;-88
2023/03/18 11:40:27;;;;;;;2.60;1.70;;;18.30;1.00;;;;;;4979914;28;20915;-87
2023/03/18 11:43:07;;;;;;;3.78;1.63;;;18.30;1.00;;;;;;4981288;28;20392;-88
2023/03/18 11:45:58;;;;;;;2.60;1.50;;;20.20;1.00;;;;;;4984997;28;20403;-88
2023/03/18 11:48:46;;;;;;;2.40;1.30;;;19.50;1.00;;;;;;4986226;28;20400;-86
2023/03/18 11:51:30;;;;;;;2.00;1.30;;;19.50;1.00;;;;;;4979014;28;20424;-87
2023/03/18 11:54:21;;;;;;;2.40;1.40;;;19.90;1.00;;;;;;4989970;28;20503;-89
2023/03/18 11:57:31;;;;;;;1.95;1.50;;;19.80;1.00;;;;;;4979183;28;20401;-90
2023/03/18 12:00:12;;;;;;;2.22;1.60;;;19.90;1.00;;;;;;4980278;28;20395;-88
2023/03/18 12:03:08;;;;;;;3.50;1.50;;;20.10;1.00;;;;;;4976164;28;20401;-88
2023/03/18 12:05:36;;;;;;;2.78;1.50;;;20.60;1.00;;;;;;4956450;28;20465;-89
2023/03/18 12:08:10;;;;;;;2.50;1.30;;;21.90;1.00;;;;;;4956369;28;20390;-89
2023/03/18 12:11:15;;;;;;;4.03;1.40;;;21.80;1.00;;;;;;4969810;28;20950;-90
2023/03/18 12:14:31;;;;;;;;;;;;;;;;;;;;;
2023/03/18 12:17:18;;;;;;;2.40;1.60;;;21.30;1.00;;;;;;4977670;28;20467;-86
2023/03/18 12:19:57;;;;;;;2.08;1.60;;;20.70;1.00;;;;;;4974049;28;20404;-88
2023/03/18 12:22:51;;;;;;;2.80;1.57;;;21.30;1.00;;;;;;4973233;28;20418;-87
2023/03/18 12:25:35;;;;;;;3.70;1.60;;;20.90;1.00;;;;;;4976475;28;20541;-88
2023/03/18 12:28:23;;;;;;;3.07;1.70;;;20.30;1.00;;;;;;4972995;28;20444;-88
2023/03/18 12:31:34;;;;;;;2.17;1.42;;;20.00;1.00;;;;;;4976849;28;20408;-88
2023/03/18 12:34:50;;;;;;;2.70;1.80;;;20.50;1.00;;;;;;4970849;28;20390;-87
2023/03/18 12:41:06;;;;;;;3.30;1.70;;;19.80;1.00;;;;;;4943414;28;20393;-87
2023/03/18 12:47:05;;;;;;;2.45;1.60;;;19.80;1.00;;;;;;4977345;28;20484;-87
2023/03/18 12:49:50;;;;;;;1.80;1.60;;;20.20;1.00;;;;;;4976054;28;20819;-88
2023/03/18 12:52:37;;;;;;;2.90;1.80;;;19.90;1.00;;;;;;4972596;28;20388;-88
2023/03/18 12:58:30;;;;;;;5.40;1.65;;;20.40;1.00;;;;;;4996912;28;20415;-88
2023/03/18 13:04:51;;;;;;;1.65;1.20;;;19.70;1.00;;;;;;4959942;28;20451;-87
2023/03/18 13:07:42;;;;;;;2.08;1.67;;;19.10;1.00;;;;;;4955722;28;20410;-88
2023/03/18 13:10:45;;;;;;;1.67;1.40;;;19.10;1.00;;;;;;4972146;28;20434;-88
2023/03/18 13:13:23;;;;;;;2.20;1.50;;;18.90;1.00;;;;;;4973895;28;20458;-88
2023/03/18 13:15:56;;;;;;;1.90;1.52;;;20.40;1.00;;;;;;4977082;28;20388;-87
2023/03/18 13:29:40;;;;;;;4.22;1.95;;;19.10;1.00;;;;;;5038135;28;20433;-90
2023/03/18 13:32:24;;;;;;;3.70;1.60;;;20.00;1.00;;;;;;5007131;28;20768;-91
2023/03/18 13:35:13;;;;;;;3.10;1.70;;;20.70;1.00;;;;;;5013039;28;20388;-90
2023/03/18 13:37:57;;;;;;;2.22;1.50;;;20.90;1.00;;;;;;5013191;28;20400;-89
2023/03/18 13:40:43;;;;;;;3.13;1.80;;;20.80;1.00;;;;;;5014712;28;20404;-90
2023/03/18 13:43:17;;;;;;;2.10;1.40;;;19.70;1.00;;;;;;5014554;28;20407;-91
2023/03/18 13:45:46;;;;;;;2.00;1.50;;;19.30;1.00;;;;;;4993992;28;20462;-90
2023/03/18 13:48:19;;;;;;;2.08;1.50;;;19.50;1.00;;;;;;4993672;28;20398;-90
2023/03/18 13:50:47;;;;;;;3.25;1.65;;;18.80;1.00;;;;;;4994831;28;20449;-90
2023/03/18 13:53:28;;;;;;;1.50;1.40;;;18.50;1.00;;;;;;4997081;28;20766;-93
2023/03/18 13:55:57;;;;;;;3.15;1.60;;;18.90;1.00;;;;;;5009284;28;20379;-91
2023/03/18 13:58:26;;;;;;;4.10;1.80;;;18.70;1.00;;;;;;5025065;28;20409;-93
2023/03/18 14:00:58;;;;;;;2.60;1.40;;;18.70;1.00;;;;;;5029414;28;20412;-92
2023/03/18 14:03:29;;;;;;;1.45;1.30;;;18.40;1.00;;;;;;5032347;28;20397;-94
2023/03/18 14:06:03;;;;;;;2.10;1.50;;;18.40;1.00;;;;;;5019135;28;20401;-90
2023/03/18 14:08:34;;;;;;;1.98;1.70;;;18.40;1.00;;;;;;5028785;28;20377;-91
2023/03/18 14:11:27;;;;;;;2.78;1.30;;;18.50;1.00;;;;;;5044424;28;20466;-91
2023/03/18 14:14:04;;;;;;;2.40;1.20;;;20.80;1.00;;;;;;5054197;28;20391;-91
2023/03/18 14:16:33;;;;;;;2.30;1.63;;;20.70;1.00;;;;;;5033719;28;20520;-91
2023/03/18 14:19:18;;;;;;;3.28;1.40;;;21.30;1.00;;;;;;5018030;28;20408;-90
2023/03/18 14:22:04;;;;;;;3.70;1.70;;;22.20;1.00;;;;;;5012721;28;20487;-91
2023/03/18 14:24:30;;;;;;;2.17;1.67;;;22.60;1.00;;;;;;5012038;28;20404;-90